Time;durP1;ratioP1;P1;durP2;ratioP2;P2;SDS_P1;SDS_P2;PMS_P1;PMS_P2;Temp;Humidity;BMP_temperature;BMP_pressure;BME280_temperature;BME280_humidity;BME280_pressure;Samples;Min_cycle;Max_cycle;Signal;HPM_P1;HPM_P2
2023/05/01 05:44:57;;;;;;;305.42;153.73;;;;;;;8.31;92.42;96371.19;2086346;27;20552;-64
2023/05/01 07:27:05;;;;;;;11.40;7.22;;;;;;;10.33;79.77;96388.53;2084914;28;20559;-65
2023/05/01 07:29:12;;;;;;;10.20;6.47;;;;;;;10.48;78.43;96366.94;2100535;27;20640;-63
2023/05/01 07:30:13;;;;;;;11.88;7.25;;;;;;;10.71;78.38;96372.81;2100036;28;20229;-63
2023/05/01 07:32:19;;;;;;;8.00;6.57;;;;;;;10.65;79.40;96378.34;2081947;28;20957;-63
2023/05/01 07:33:24;;;;;;;10.27;7.40;;;;;;;10.94;78.73;96390.81;2074499;28;20597;-63
2023/05/01 07:34:26;;;;;;;9.43;6.35;;;;;;;11.02;78.56;96376.47;2079789;28;20194;-66
2023/05/01 07:36:35;;;;;;;10.07;6.55;;;;;;;11.13;77.28;96382.00;2083172;28;20556;-66
2023/05/01 07:38:50;;;;;;;16.23;8.07;;;;;;;11.09;78.93;96354.34;2084819;27;20549;-63
2023/05/01 07:41:11;;;;;;;10.57;5.78;;;;;;;11.23;79.06;96385.84;2084886;28;20578;-63
2023/05/01 07:43:36;;;;;;;10.32;5.70;;;;;;;11.15;78.11;96374.94;2086717;28;20582;-63
2023/05/01 07:47:43;;;;;;;12.25;6.60;;;;;;;11.07;79.88;96369.25;2090658;27;20569;-63
2023/05/01 07:50:11;;;;;;;9.18;6.03;;;;;;;10.86;78.31;96382.50;2111629;27;20581;-63
2023/05/01 07:52:32;;;;;;;11.63;6.18;;;;;;;10.65;79.27;96365.28;2080357;28;21091;-62
2023/05/01 07:53:34;;;;;;;10.30;6.40;;;;;;;10.98;80.09;96385.41;2071511;28;20206;-63
2023/05/01 07:55:48;;;;;;;11.93;6.30;;;;;;;10.86;79.92;96371.22;2101842;27;21005;-62
2023/05/01 07:56:49;;;;;;;8.23;6.40;;;;;;;10.87;79.80;96370.25;2094780;28;20204;-63
2023/05/01 07:57:51;;;;;;;13.88;6.13;;;;;;;11.04;78.75;96372.03;2087585;28;20549;-62
2023/05/01 07:58:52;;;;;;;10.88;6.22;;;;;;;11.17;77.90;96367.03;2090311;28;20201;-63
2023/05/01 07:59:55;;;;;;;9.35;6.03;;;;;;;11.11;77.16;96376.03;2090596;28;20676;-62
2023/05/01 08:00:57;;;;;;;9.60;5.75;;;;;;;11.07;76.12;96362.28;2090254;28;20237;-63
2023/05/01 08:01:58;;;;;;;10.80;5.53;;;;;;;11.14;76.25;96370.63;2091016;28;20667;-63
2023/05/01 08:03:01;;;;;;;7.28;5.55;;;;;;;11.22;78.00;96367.63;2091418;28;20205;-63
2023/05/01 08:04:02;;;;;;;9.75;6.38;;;;;;;11.26;77.65;96374.38;2084413;28;20208;-63
2023/05/01 08:05:04;;;;;;;8.27;5.32;;;;;;;11.37;77.18;96376.44;2077658;28;20198;-63
2023/05/01 08:06:06;;;;;;;8.60;5.63;;;;;;;11.42;76.40;96380.50;2081342;28;20220;-63
2023/05/01 08:07:08;;;;;;;12.15;5.65;;;;;;;11.42;75.32;96377.06;2089037;28;20216;-63
2023/05/01 08:08:09;;;;;;;8.48;5.63;;;;;;;11.45;76.03;96371.66;2091189;28;20199;-63
2023/05/01 08:09:10;;;;;;;10.82;5.53;;;;;;;11.57;75.76;96383.25;2090082;28;20233;-63
2023/05/01 08:10:12;;;;;;;12.13;6.65;;;;;;;11.51;75.27;96376.56;2080852;28;20221;-63
2023/05/01 08:11:15;;;;;;;9.52;6.15;;;;;;;11.47;75.16;96375.03;2079533;28;20209;-63
2023/05/01 08:12:16;;;;;;;7.80;5.78;;;;;;;11.54;76.19;96384.25;2088065;28;20225;-63
2023/05/01 08:13:18;;;;;;;9.07;5.03;;;;;;;11.69;76.20;96377.34;2090427;28;20205;-63
2023/05/01 08:14:19;;;;;;;9.90;5.45;;;;;;;11.63;74.92;96379.47;2090002;28;20196;-63
2023/05/01 08:15:21;;;;;;;10.77;6.63;;;;;;;11.82;74.98;96374.94;2089457;28;20210;-63
2023/05/01 08:16:22;;;;;;;10.57;6.78;;;;;;;11.76;74.63;96360.41;2087291;28;20213;-63
2023/05/01 08:17:24;;;;;;;11.98;6.43;;;;;;;11.86;73.66;96373.84;2087915;28;20275;-63
2023/05/01 08:18:25;;;;;;;9.73;5.97;;;;;;;11.85;74.32;96374.78;2090116;28;20296;-59
2023/05/01 08:19:27;;;;;;;7.93;6.00;;;;;;;12.05;73.87;96378.94;2090588;28;20200;-62
2023/05/01 08:20:29;;;;;;;9.30;5.95;;;;;;;12.33;73.60;96380.03;2090949;28;20491;-62
2023/05/01 08:21:31;;;;;;;7.13;5.25;;;;;;;12.55;72.78;96381.44;2087253;28;20301;-59
2023/05/01 08:22:32;;;;;;;9.25;6.13;;;;;;;12.41;73.20;96377.81;2080634;28;20967;-59
2023/05/01 08:23:33;;;;;;;10.88;6.55;;;;;;;12.37;72.67;96371.09;2081743;28;20236;-59
2023/05/01 08:24:35;;;;;;;8.30;5.65;;;;;;;12.21;71.89;96375.47;2090093;28;20231;-59
2023/05/01 08:25:36;;;;;;;10.32;5.25;;;;;;;12.28;71.63;96382.06;2090067;28;20539;-59
2023/05/01 08:26:37;;;;;;;7.35;5.78;;;;;;;12.47;72.25;96375.78;2090658;28;20228;-59
2023/05/01 08:27:39;;;;;;;7.72;5.60;;;;;;;12.34;72.64;96367.78;2090353;28;20239;-59
2023/05/01 08:28:41;;;;;;;7.95;4.80;;;;;;;12.45;72.95;96378.50;2089946;28;20200;-59
2023/05/01 08:29:42;;;;;;;8.10;5.78;;;;;;;12.52;71.89;96376.38;2090999;28;20196;-59
2023/05/01 08:30:44;;;;;;;6.88;5.38;;;;;;;12.33;71.15;96366.09;2090710;28;20203;-59
2023/05/01 08:31:46;;;;;;;7.50;4.90;;;;;;;12.53;71.84;96380.69;2090696;28;20234;-59
2023/05/01 08:32:47;;;;;;;7.40;5.30;;;;;;;12.46;72.28;96366.28;2087260;28;20227;-60
2023/05/01 08:33:49;;;;;;;8.55;5.68;;;;;;;12.61;71.07;96375.88;2089886;28;20640;-59
2023/05/01 08:34:50;;;;;;;7.03;5.20;;;;;;;12.56;70.77;96375.28;2092482;28;20199;-59
2023/05/01 08:35:52;;;;;;;11.27;5.97;;;;;;;12.71;71.48;96369.16;2092374;28;20612;-60
2023/05/01 08:36:54;;;;;;;8.10;5.70;;;;;;;12.77;71.47;96373.19;2091667;28;20231;-59
2023/05/01 08:37:55;;;;;;;9.02;5.32;;;;;;;12.90;70.56;96374.19;2082617;28;20287;-60
2023/05/01 08:38:57;;;;;;;9.70;5.47;;;;;;;13.18;70.41;96369.94;2080596;28;20197;-60
2023/05/01 08:39:58;;;;;;;9.05;4.90;;;;;;;13.18;69.17;96369.06;2088106;28;20197;-60
2023/05/01 08:41:02;;;;;;;8.73;5.80;;;;;;;13.23;69.97;96369.69;2087988;28;20207;-60
2023/05/01 08:42:04;;;;;;;8.85;5.60;;;;;;;13.32;68.48;96371.72;2087601;28;20235;-60
2023/05/01 08:43:05;;;;;;;9.43;6.25;;;;;;;13.48;67.78;96366.41;2085206;28;20208;-60
2023/05/01 08:44:09;;;;;;;6.47;4.85;;;;;;;13.47;68.59;96370.00;2076481;28;20617;-63
2023/05/01 08:45:11;;;;;;;11.15;6.40;;;;;;;13.60;68.22;96364.84;2083584;28;20200;-63
2023/05/01 08:46:17;;;;;;;10.73;5.28;;;;;;;13.52;67.54;96365.31;2090082;28;20636;-63
2023/05/01 08:47:18;;;;;;;9.35;4.30;;;;;;;13.52;66.38;96367.09;2087709;28;20231;-63
2023/05/01 08:48:21;;;;;;;7.63;4.80;;;;;;;13.75;65.65;96375.31;2090014;28;20316;-63
2023/05/01 08:49:26;;;;;;;6.15;4.55;;;;;;;13.68;66.45;96375.69;2090035;28;20199;-63
2023/05/01 08:50:28;;;;;;;7.38;4.63;;;;;;;13.74;66.92;96385.00;2090467;28;20620;-63
2023/05/01 08:51:32;;;;;;;10.80;7.80;;;;;;;13.55;66.16;96377.41;2088588;28;20196;-60
2023/05/01 08:52:34;;;;;;;35.95;22.90;;;;;;;13.51;66.84;96383.75;2080782;28;20225;-64
2023/05/01 08:53:37;;;;;;;11.13;7.03;;;;;;;13.46;66.90;96375.31;2085574;28;20211;-63
2023/05/01 08:54:41;;;;;;;11.13;7.40;;;;;;;13.50;67.24;96371.59;2086749;28;20197;-64
2023/05/01 08:55:47;;;;;;;8.68;6.07;;;;;;;13.46;67.82;96364.81;2088963;28;20384;-63
2023/05/01 08:56:51;;;;;;;8.90;5.70;;;;;;;13.52;67.44;96364.47;2088445;28;20192;-63
2023/05/01 08:57:54;;;;;;;6.68;4.70;;;;;;;13.59;67.23;96372.81;2090102;28;20194;-63
2023/05/01 08:58:57;;;;;;;6.78;5.03;;;;;;;13.71;66.59;96353.69;2090234;28;20243;-63
2023/05/01 09:00:00;;;;;;;7.45;5.03;;;;;;;13.79;65.77;96359.31;2090447;28;20296;-63
2023/05/01 09:01:01;;;;;;;8.32;5.03;;;;;;;13.97;65.71;96364.34;2080959;28;20196;-63
2023/05/01 09:02:06;;;;;;;5.88;4.32;;;;;;;13.99;65.35;96367.69;2079742;28;20197;-63
2023/05/01 09:03:11;;;;;;;8.50;5.13;;;;;;;13.79;64.95;96361.94;2086334;28;20200;-63
2023/05/01 09:04:15;;;;;;;6.55;4.40;;;;;;;13.89;65.69;96372.72;2088356;28;20234;-63
2023/05/01 09:05:18;;;;;;;9.68;5.32;;;;;;;13.67;65.95;96368.75;2088324;28;20711;-63
2023/05/01 09:06:20;;;;;;;6.82;4.80;;;;;;;13.78;66.02;96372.53;2080368;28;20197;-63
2023/05/01 09:07:22;;;;;;;8.02;4.40;;;;;;;13.85;64.81;96372.06;2073565;28;20225;-63
2023/05/01 09:08:24;;;;;;;6.88;4.47;;;;;;;13.90;64.69;96366.50;2080594;28;20313;-63
2023/05/01 09:09:27;;;;;;;5.70;4.50;;;;;;;14.27;64.29;96373.84;2080820;28;20208;-63
2023/05/01 09:10:29;;;;;;;12.50;5.10;;;;;;;14.14;63.99;96373.78;2084661;28;20193;-63
2023/05/01 09:11:33;;;;;;;5.60;4.60;;;;;;;14.48;64.33;96369.81;2083094;28;20197;-63
2023/05/01 09:12:35;;;;;;;8.85;4.28;;;;;;;14.56;64.04;96365.88;2074173;28;20229;-63
2023/05/01 09:13:37;;;;;;;7.95;4.85;;;;;;;14.50;63.80;96362.69;2065950;28;20210;-65
2023/05/01 09:14:39;;;;;;;8.10;5.05;;;;;;;14.41;64.36;96371.19;2067693;28;20256;-64
2023/05/01 09:15:40;;;;;;;6.78;4.78;;;;;;;14.53;64.49;96367.75;2082062;28;20201;-64
2023/05/01 09:16:42;;;;;;;8.98;4.70;;;;;;;14.42;64.07;96364.13;2075873;28;20204;-64
2023/05/01 09:17:44;;;;;;;8.77;4.40;;;;;;;14.55;63.40;96370.28;2074152;28;20221;-64
2023/05/01 09:18:46;;;;;;;16.25;4.78;;;;;;;14.48;63.98;96375.09;2084952;28;20200;-64
2023/05/01 09:19:49;;;;;;;5.57;3.92;;;;;;;14.65;63.77;96374.03;2074419;28;20758;-64
2023/05/01 09:20:51;;;;;;;4.88;3.67;;;;;;;14.74;62.12;96371.72;2078888;28;20276;-64
2023/05/01 09:21:54;;;;;;;7.47;3.63;;;;;;;14.98;62.03;96372.75;2083408;28;20196;-64
2023/05/01 09:22:56;;;;;;;4.88;4.07;;;;;;;14.89;60.75;96367.25;2083717;28;20212;-64
2023/05/01 09:23:57;;;;;;;8.65;4.22;;;;;;;15.11;61.33;96364.88;2082135;28;20205;-64
2023/05/01 09:25:00;;;;;;;5.65;3.95;;;;;;;15.08;61.28;96366.88;2081216;28;20197;-64
2023/05/01 09:26:07;;;;;;;4.93;3.83;;;;;;;15.38;61.47;96371.00;2081771;28;20796;-64
2023/05/01 09:27:11;;;;;;;8.57;3.72;;;;;;;15.12;60.24;96365.69;2084073;28;20231;-64
2023/05/01 09:28:14;;;;;;;7.75;3.78;;;;;;;15.23;60.84;96368.44;2081213;28;20201;-64
2023/05/01 09:29:46;;;;;;;7.22;2.97;;;;;;;15.15;60.14;96362.88;2081677;28;20200;-64
2023/05/01 09:30:48;;;;;;;6.75;4.00;;;;;;;14.94;60.93;96359.91;2072629;28;20235;-64
2023/05/01 09:31:49;;;;;;;3.65;3.08;;;;;;;14.70;61.13;96357.94;2083544;28;20204;-64
2023/05/01 09:33:05;;;;;;;4.70;3.47;;;;;;;14.85;60.84;96350.84;2083764;28;20193;-64
2023/05/01 09:34:07;;;;;;;5.20;3.28;;;;;;;15.00;61.70;96364.75;2084395;28;20204;-64
2023/05/01 09:35:13;;;;;;;6.93;3.40;;;;;;;15.34;61.36;96365.09;2083349;28;20201;-64
2023/05/01 09:36:17;;;;;;;7.63;3.40;;;;;;;15.52;60.16;96371.72;2083514;28;20300;-64
2023/05/01 09:37:32;;;;;;;6.55;3.75;;;;;;;15.74;60.26;96367.59;2082395;28;20216;-64
2023/05/01 09:38:33;;;;;;;4.60;3.45;;;;;;;15.87;58.99;96361.50;2080994;28;20664;-64
2023/05/01 09:39:35;;;;;;;6.78;3.13;;;;;;;15.90;58.37;96369.22;2082169;28;20201;-64
2023/05/01 09:40:37;;;;;;;10.25;3.42;;;;;;;16.04;57.68;96365.59;2085437;28;20236;-64
2023/05/01 09:41:51;;;;;;;6.22;4.18;;;;;;;16.26;58.23;96370.16;2080766;28;20200;-64
2023/05/01 09:42:54;;;;;;;5.97;3.55;;;;;;;16.11;58.24;96369.44;2085111;28;20209;-64
2023/05/01 09:43:56;;;;;;;7.05;3.70;;;;;;;16.29;58.00;96368.16;2087154;28;20204;-64
2023/05/01 09:44:59;;;;;;;5.72;3.30;;;;;;;16.42;57.46;96370.72;2084823;28;20200;-64
2023/05/01 09:46:09;;;;;;;4.10;3.38;;;;;;;16.56;57.17;96367.09;2084295;28;20291;-64
2023/05/01 09:47:12;;;;;;;14.13;3.45;;;;;;;16.87;56.75;96377.16;2084035;28;20225;-63
2023/05/01 09:48:14;;;;;;;7.80;4.18;;;;;;;16.90;55.59;96366.38;2076129;28;20201;-63
2023/05/01 09:49:15;;;;;;;5.63;3.30;;;;;;;17.11;56.17;96363.97;2076002;28;20263;-63
2023/05/01 09:50:31;;;;;;;29.77;18.13;;;;;;;17.22;55.19;96364.00;2085598;28;20216;-64
2023/05/01 09:51:33;;;;;;;7.93;4.57;;;;;;;17.31;54.97;96365.09;2084450;28;20231;-63
2023/05/01 09:52:35;;;;;;;8.35;3.15;;;;;;;17.30;54.47;96369.50;2083520;28;20213;-65
2023/05/01 09:53:38;;;;;;;4.45;3.00;;;;;;;18.13;54.13;96364.03;2083499;28;20731;-61
2023/05/01 09:54:40;;;;;;;8.35;4.05;;;;;;;18.57;54.47;96366.72;2084418;28;20223;-65
2023/05/01 09:55:50;;;;;;;8.05;3.97;;;;;;;18.56;54.70;96365.91;2079625;28;20237;-65
2023/05/01 09:56:51;;;;;;;4.45;3.13;;;;;;;18.33;54.77;96366.91;2077780;28;20220;-65
2023/05/01 09:57:53;;;;;;;6.72;3.45;;;;;;;18.13;54.72;96368.50;2080305;28;20205;-64
2023/05/01 09:58:56;;;;;;;6.05;3.00;;;;;;;18.15;54.54;96362.13;2081742;28;20197;-66
2023/05/01 10:00:08;;;;;;;6.82;3.88;;;;;;;17.89;54.53;96343.88;2074611;28;20210;-66
2023/05/01 10:01:10;;;;;;;5.22;3.40;;;;;;;18.50;53.86;96365.53;2077021;28;20608;-66
2023/05/01 10:02:28;;;;;;;5.38;3.42;;;;;;;17.71;54.49;96372.59;2082905;28;20285;-64
2023/05/01 10:03:30;;;;;;;21.90;14.50;;;;;;;17.55;55.13;96367.66;2081078;28;20193;-65
2023/05/01 10:04:33;;;;;;;14.82;10.07;;;;;;;17.48;55.19;96363.78;2084348;28;20668;-66
2023/05/01 10:05:43;;;;;;;6.32;3.65;;;;;;;17.43;56.34;96361.53;2085531;28;20220;-65
2023/05/01 10:06:44;;;;;;;10.77;4.35;;;;;;;17.66;57.12;96358.91;2083993;28;20194;-66
2023/05/01 10:08:02;;;;;;;6.38;3.38;;;;;;;17.83;56.54;96367.31;2083069;28;20217;-66
2023/05/01 10:09:15;;;;;;;5.47;3.60;;;;;;;18.03;55.67;96366.59;2085098;28;20566;-66
2023/05/01 10:10:18;;;;;;;5.97;3.72;;;;;;;18.03;55.79;96368.38;2083264;28;20204;-66
2023/05/01 10:11:21;;;;;;;4.75;3.22;;;;;;;17.23;55.06;96351.63;2080511;28;20205;-66
2023/05/01 10:12:27;;;;;;;6.80;3.50;;;;;;;17.21;56.87;96372.03;2081217;28;20534;-66
2023/05/01 10:13:29;;;;;;;7.63;3.88;;;;;;;16.84;57.41;96367.69;2083669;28;20205;-66
2023/05/01 10:14:37;;;;;;;6.38;3.65;;;;;;;17.17;57.34;96370.59;2083811;28;20656;-66
2023/05/01 10:15:38;;;;;;;5.15;3.63;;;;;;;17.32;57.11;96369.41;2083427;28;20219;-66
2023/05/01 10:16:40;;;;;;;6.30;4.28;;;;;;;17.49;57.36;96372.56;2083435;28;20216;-66
2023/05/01 10:17:43;;;;;;;4.70;3.78;;;;;;;17.68;56.23;96374.63;2075283;28;20269;-66
2023/05/01 10:18:44;;;;;;;6.75;3.00;;;;;;;17.48;57.24;96369.06;2075040;28;20205;-65
2023/05/01 10:19:47;;;;;;;7.18;4.45;;;;;;;17.54;57.16;96373.06;2083713;28;20287;-66
2023/05/01 10:20:50;;;;;;;5.22;3.45;;;;;;;17.59;57.24;96379.63;2085118;28;20200;-66
2023/05/01 10:21:52;;;;;;;6.60;4.20;;;;;;;17.59;58.01;96377.00;2081322;28;20528;-65
2023/05/01 10:22:53;;;;;;;8.40;4.70;;;;;;;17.17;58.22;96378.50;2083323;28;20216;-66
2023/05/01 10:23:56;;;;;;;10.60;5.00;;;;;;;16.77;59.83;96375.22;2084802;28;20207;-66
2023/05/01 10:24:58;;;;;;;8.05;4.22;;;;;;;17.06;60.29;96376.66;2084640;28;20366;-66
2023/05/01 10:26:01;;;;;;;7.47;3.70;;;;;;;17.29;60.44;96375.78;2084537;28;20197;-66
2023/05/01 10:27:05;;;;;;;8.43;4.25;;;;;;;17.49;60.21;96375.19;2082808;28;20192;-66
2023/05/01 10:28:08;;;;;;;13.43;4.50;;;;;;;17.37;60.17;96376.97;2082320;28;20205;-66
2023/05/01 10:29:11;;;;;;;6.50;4.25;;;;;;;17.21;60.56;96374.66;2085947;28;20287;-65
2023/05/01 10:30:15;;;;;;;7.63;4.57;;;;;;;17.04;61.49;96370.66;2080746;28;20197;-66
2023/05/01 10:31:17;;;;;;;6.55;4.97;;;;;;;16.98;61.26;96378.06;2083042;28;20205;-66
2023/05/01 10:32:19;;;;;;;6.30;4.20;;;;;;;17.03;60.76;96375.09;2083102;28;20300;-66
2023/05/01 10:33:21;;;;;;;8.02;4.72;;;;;;;17.07;60.82;96379.19;2082694;28;20591;-66
2023/05/01 10:34:24;;;;;;;11.80;4.82;;;;;;;16.88;60.95;96369.13;2074004;28;20376;-64
2023/05/01 10:35:32;;;;;;;9.40;6.43;;;;;;;16.63;60.12;96378.00;2074943;28;20193;-65
2023/05/01 10:36:38;;;;;;;8.05;4.55;;;;;;;16.19;61.35;96375.03;2075289;28;20202;-64
2023/05/01 10:37:50;;;;;;;6.95;4.72;;;;;;;16.35;61.30;96374.75;2077567;28;20220;-64
2023/05/01 10:38:51;;;;;;;7.65;4.82;;;;;;;16.46;61.60;96382.72;2083833;28;20231;-64
2023/05/01 10:39:54;;;;;;;7.00;4.13;;;;;;;16.72;61.41;96373.84;2083303;28;20192;-64
2023/05/01 10:40:55;;;;;;;7.38;4.10;;;;;;;16.57;61.92;96384.59;2082450;28;20200;-60
2023/05/01 10:41:57;;;;;;;6.13;4.63;;;;;;;16.55;62.51;96381.22;2082804;28;20197;-60
2023/05/01 10:43:17;;;;;;;8.88;4.95;;;;;;;16.80;62.06;96380.25;2083551;28;20705;-60
2023/05/01 10:44:20;;;;;;;7.95;4.45;;;;;;;16.93;62.34;96379.38;2083533;28;20188;-61
2023/05/01 10:45:28;;;;;;;8.10;4.78;;;;;;;17.09;61.83;96374.63;2084651;28;20232;-60
2023/05/01 10:46:30;;;;;;;9.27;4.45;;;;;;;17.24;61.73;96374.44;2075885;28;20258;-60
2023/05/01 10:47:33;;;;;;;6.43;4.43;;;;;;;17.09;60.98;96379.91;2067699;28;20276;-60
2023/05/01 10:48:44;;;;;;;6.63;5.13;;;;;;;16.71;60.68;96372.19;2075171;28;20224;-60
2023/05/01 10:50:08;;;;;;;8.02;5.38;;;;;;;16.76;60.65;96375.31;2085413;28;20523;-60
2023/05/01 10:51:20;;;;;;;7.45;4.70;;;;;;;16.92;61.25;96381.16;2082847;28;20239;-60
2023/05/01 10:52:21;;;;;;;7.05;5.30;;;;;;;17.04;61.39;96379.41;2083382;28;20244;-60
2023/05/01 10:53:23;;;;;;;7.90;5.05;;;;;;;16.90;62.31;96375.16;2080480;28;20251;-60
2023/05/01 10:54:31;;;;;;;7.03;5.07;;;;;;;16.88;62.08;96379.69;2083274;28;20208;-60
2023/05/01 10:55:35;;;;;;;9.55;5.65;;;;;;;16.69;60.92;96376.75;2077699;28;20247;-60
2023/05/01 10:56:36;;;;;;;8.60;5.25;;;;;;;16.72;61.38;96372.09;2072803;28;20194;-60
2023/05/01 10:57:45;;;;;;;6.70;4.63;;;;;;;16.53;62.36;96380.50;2079277;28;20225;-60
2023/05/01 10:59:03;;;;;;;6.68;4.43;;;;;;;16.57;63.04;96373.19;2084053;28;20197;-61
2023/05/01 11:00:04;;;;;;;6.97;5.20;;;;;;;16.35;63.40;96377.38;2081532;28;20197;-61
2023/05/01 11:01:31;;;;;;;10.70;8.00;;;;;;;16.42;62.25;96373.38;2083819;28;20205;-62
2023/05/01 11:02:33;;;;;;;30.77;21.02;;;;;;;16.32;63.28;96373.19;2081439;28;20225;-62
2023/05/01 11:03:35;;;;;;;13.55;7.82;;;;;;;15.94;64.29;96368.03;2083191;28;20258;-62
2023/05/01 11:04:49;;;;;;;8.52;6.07;;;;;;;15.92;64.94;96380.44;2083362;28;20197;-62
2023/05/01 11:06:01;;;;;;;67.85;44.60;;;;;;;15.71;65.73;96375.72;2080297;28;20204;-63
2023/05/01 11:07:04;;;;;;;13.27;6.95;;;;;;;16.02;65.40;96352.50;2082733;28;20379;-61
2023/05/01 11:08:36;;;;;;;15.45;6.38;;;;;;;16.33;64.60;96377.50;2080486;28;20228;-61
2023/05/01 11:09:42;;;;;;;11.73;5.28;;;;;;;16.40;64.46;96377.06;2077975;28;20208;-62
2023/05/01 11:10:44;;;;;;;10.80;5.95;;;;;;;16.47;63.80;96371.22;2082835;28;20683;-62
2023/05/01 11:11:48;;;;;;;6.95;4.60;;;;;;;16.64;63.18;96369.16;2080293;28;20201;-62
2023/05/01 11:12:50;;;;;;;9.55;6.35;;;;;;;16.38;62.53;96368.41;2080188;28;20609;-61
2023/05/01 11:14:09;;;;;;;9.68;7.00;;;;;;;16.56;63.03;96379.44;2083762;28;20204;-60
2023/05/01 11:15:31;;;;;;;9.27;5.78;;;;;;;16.31;63.43;96376.75;2080489;28;20204;-60
2023/05/01 11:16:32;;;;;;;7.68;5.72;;;;;;;16.46;62.87;96366.91;2083800;28;20230;-60
2023/05/01 11:17:40;;;;;;;7.03;5.43;;;;;;;16.14;63.69;96372.72;2081810;28;20231;-60
2023/05/01 11:18:44;;;;;;;9.60;5.35;;;;;;;16.39;63.62;96375.38;2083473;28;20418;-61
2023/05/01 11:19:49;;;;;;;7.50;4.78;;;;;;;16.67;63.55;96368.09;2082465;28;20246;-60
2023/05/01 11:20:51;;;;;;;8.40;4.95;;;;;;;16.79;63.38;96367.19;2084112;28;20676;-61
2023/05/01 11:21:53;;;;;;;9.93;5.90;;;;;;;16.97;62.84;96373.75;2083201;28;20197;-61
2023/05/01 11:22:56;;;;;;;9.27;5.70;;;;;;;17.19;61.42;96366.03;2075345;28;20688;-61
2023/05/01 11:23:58;;;;;;;9.45;5.63;;;;;;;17.38;60.47;96368.09;2078500;28;20197;-66
2023/05/01 11:25:04;;;;;;;5.88;4.45;;;;;;;17.11;61.50;96363.97;2082422;28;20650;-66
2023/05/01 11:26:06;;;;;;;7.35;4.95;;;;;;;17.32;60.80;96368.56;2075457;28;20189;-67
2023/05/01 11:27:07;;;;;;;8.18;5.68;;;;;;;17.44;61.29;96362.34;2073646;28;20238;-66
2023/05/01 11:28:10;;;;;;;11.07;5.00;;;;;;;16.86;62.38;96372.84;2073199;28;20225;-67
2023/05/01 11:29:11;;;;;;;8.25;4.88;;;;;;;16.80;62.51;96368.88;2074343;28;20219;-66
2023/05/01 11:30:13;;;;;;;8.07;4.72;;;;;;;17.29;60.56;96365.22;2081712;28;20201;-66
2023/05/01 11:31:17;;;;;;;8.25;5.00;;;;;;;17.36;59.60;96360.31;2082315;28;20204;-66
2023/05/01 11:32:25;;;;;;;12.80;5.20;;;;;;;17.01;60.44;96366.44;2084978;28;20784;-66
2023/05/01 11:33:27;;;;;;;6.18;4.30;;;;;;;17.00;61.22;96370.06;2074404;28;20303;-67
2023/05/01 11:34:36;;;;;;;12.02;5.22;;;;;;;17.31;60.51;96365.09;2075635;28;20204;-66
2023/05/01 11:35:38;;;;;;;9.50;5.43;;;;;;;17.60;59.90;96357.56;2084511;28;20201;-66
2023/05/01 11:36:50;;;;;;;15.70;10.13;;;;;;;17.91;58.99;96364.88;2076012;28;20251;-66
2023/05/01 11:37:52;;;;;;;56.72;29.75;;;;;;;17.95;58.96;96361.94;2077014;28;20296;-66
2023/05/01 11:38:58;;;;;;;27.67;14.18;;;;;;;18.28;58.48;96369.91;2074115;28;20228;-67
2023/05/01 11:40:00;;;;;;;152.98;63.28;;;;;;;18.59;57.89;96352.41;2078303;28;20193;-67
2023/05/01 11:41:03;;;;;;;23.85;10.35;;;;;;;18.97;55.98;96357.34;2085209;28;20204;-67
2023/05/01 11:42:06;;;;;;;12.43;6.25;;;;;;;18.33;56.33;96358.97;2074657;28;20235;-67
2023/05/01 11:43:08;;;;;;;8.75;5.10;;;;;;;18.89;55.90;96347.38;2075519;28;20251;-67
2023/05/01 11:44:16;;;;;;;22.85;10.45;;;;;;;19.02;54.78;96349.84;2073705;28;20201;-68
2023/05/01 11:45:18;;;;;;;27.48;15.80;;;;;;;19.31;54.00;96349.22;2076409;28;20232;-68
2023/05/01 11:46:31;;;;;;;13.15;6.13;;;;;;;19.19;54.51;96349.28;2082725;28;20341;-68
2023/05/01 11:47:32;;;;;;;7.63;5.38;;;;;;;19.46;54.60;96353.19;2079462;28;20220;-68
2023/05/01 11:48:34;;;;;;;13.35;4.75;;;;;;;18.38;55.62;96356.81;2081195;28;20732;-67
2023/05/01 11:49:36;;;;;;;5.55;3.83;;;;;;;18.58;56.28;96336.69;2082867;28;20204;-68
2023/05/01 11:50:37;;;;;;;11.13;5.13;;;;;;;18.71;56.95;96334.69;2084108;28;20231;-68
2023/05/01 11:51:39;;;;;;;7.15;4.15;;;;;;;18.89;56.71;96347.38;2084627;28;20197;-68
2023/05/01 11:52:53;;;;;;;7.65;4.85;;;;;;;18.31;56.90;96351.19;2082254;28;20267;-67
2023/05/01 11:54:05;;;;;;;12.70;5.40;;;;;;;17.28;59.59;96352.97;2079820;28;20204;-67
2023/05/01 11:55:07;;;;;;;6.93;4.53;;;;;;;17.62;59.66;96352.16;2081056;28;20261;-67
2023/05/01 11:56:19;;;;;;;12.32;4.55;;;;;;;17.42;59.25;96362.47;2083348;28;20778;-67
2023/05/01 11:57:27;;;;;;;6.25;4.70;;;;;;;17.48;60.06;96355.88;2075427;28;20268;-67
2023/05/01 11:58:32;;;;;;;6.68;5.30;;;;;;;17.47;60.81;96348.91;2076699;28;20209;-67
2023/05/01 11:59:34;;;;;;;7.25;4.60;;;;;;;17.48;60.05;96347.13;2082128;28;20193;-67
2023/05/01 12:00:38;;;;;;;7.22;5.50;;;;;;;17.47;60.45;96356.81;2082306;28;20205;-67
2023/05/01 12:01:42;;;;;;;6.70;4.97;;;;;;;17.56;60.66;96355.28;2083012;28;20604;-67
2023/05/01 12:03:01;;;;;;;9.43;6.28;;;;;;;17.34;61.81;96356.94;2084063;28;20272;-67
2023/05/01 12:04:04;;;;;;;6.60;4.95;;;;;;;17.33;61.89;96352.63;2075684;28;20202;-67
2023/05/01 12:05:16;;;;;;;8.43;5.15;;;;;;;17.41;61.74;96355.50;2074912;28;20201;-67
2023/05/01 12:06:17;;;;;;;7.32;4.88;;;;;;;17.33;62.37;96352.63;2080167;28;20208;-67
2023/05/01 12:07:22;;;;;;;7.65;5.80;;;;;;;16.89;62.22;96355.00;2080623;28;20248;-67
2023/05/01 12:08:24;;;;;;;7.43;5.03;;;;;;;16.94;62.58;96354.69;2082404;28;20196;-67
2023/05/01 12:09:27;;;;;;;8.23;5.15;;;;;;;17.06;62.44;96339.72;2082892;28;20196;-68
2023/05/01 12:10:29;;;;;;;6.22;4.20;;;;;;;17.07;62.54;96344.06;2082550;28;20193;-67
2023/05/01 12:11:30;;;;;;;8.95;5.40;;;;;;;17.16;62.15;96345.16;2082124;28;20284;-67
2023/05/01 12:12:32;;;;;;;7.88;5.70;;;;;;;16.88;62.33;96345.41;2079716;28;20256;-67
2023/05/01 12:13:34;;;;;;;6.70;4.82;;;;;;;16.48;63.69;96351.84;2080307;28;20197;-67
2023/05/01 12:14:37;;;;;;;7.63;5.32;;;;;;;16.30;65.20;96354.03;2079929;28;20556;-67
2023/05/01 12:15:44;;;;;;;13.07;6.88;;;;;;;16.45;64.66;96349.41;2081083;28;20205;-67
2023/05/01 12:16:46;;;;;;;7.38;5.80;;;;;;;16.42;65.06;96352.28;2083784;28;20643;-67
2023/05/01 12:17:47;;;;;;;8.60;6.57;;;;;;;16.60;65.06;96355.34;2083486;28;20224;-68
2023/05/01 12:18:49;;;;;;;12.13;6.00;;;;;;;16.48;66.28;96350.97;2083747;28;20644;-68
2023/05/01 12:19:50;;;;;;;34.42;24.63;;;;;;;16.35;67.84;96364.22;2081515;28;20224;-68
2023/05/01 12:20:54;;;;;;;21.15;14.35;;;;;;;16.11;69.20;96361.56;2076916;28;20236;-70
2023/05/01 12:22:06;;;;;;;12.43;8.00;;;;;;;16.06;72.27;96367.16;2076941;28;20661;-69
2023/05/01 12:59:03;;;;;;;10.43;7.82;;;;;;;14.26;85.93;96365.13;2085526;28;21043;-59
2023/05/01 13:00:05;;;;;;;12.00;7.72;;;;;;;14.27;86.03;96371.22;2080092;28;20197;-60
2023/05/01 13:01:07;;;;;;;7.97;7.03;;;;;;;14.31;86.28;96370.94;2076069;28;20197;-60
2023/05/01 13:02:14;;;;;;;8.85;7.10;;;;;;;14.46;86.09;96358.59;2070985;28;20213;-60
2023/05/01 13:03:25;;;;;;;11.68;8.13;;;;;;;14.53;83.95;96356.41;2073270;28;20205;-60
2023/05/01 13:04:27;;;;;;;14.00;7.82;;;;;;;14.67;84.08;96368.66;2072476;28;20201;-60
2023/05/01 13:05:28;;;;;;;11.52;7.53;;;;;;;14.71;83.15;96359.63;2072292;28;20205;-60
2023/05/01 13:06:32;;;;;;;11.82;7.30;;;;;;;14.78;82.17;96360.94;2068487;28;20195;-60
2023/05/01 13:07:35;;;;;;;10.93;7.78;;;;;;;14.84;82.26;96360.53;2073393;28;20637;-60
2023/05/01 13:08:41;;;;;;;10.05;7.90;;;;;;;14.69;82.47;96357.13;2073349;28;20229;-60
2023/05/01 13:09:56;;;;;;;13.02;7.60;;;;;;;14.47;83.81;96362.88;2072095;28;20540;-60
2023/05/01 13:11:01;;;;;;;13.57;8.23;;;;;;;14.59;84.36;96360.41;2065752;28;20376;-60
2023/05/01 13:12:04;;;;;;;11.27;7.63;;;;;;;14.66;82.35;96353.84;2067921;28;20202;-60
2023/05/01 13:13:06;;;;;;;11.48;7.90;;;;;;;14.89;82.76;96354.09;2073537;28;20205;-60
2023/05/01 13:14:08;;;;;;;9.45;7.07;;;;;;;15.07;82.20;96358.16;2073851;28;20245;-59
2023/05/01 13:15:20;;;;;;;9.13;6.60;;;;;;;15.08;81.82;96349.28;2071019;28;20809;-60
2023/05/01 13:16:23;;;;;;;10.82;6.90;;;;;;;15.16;82.09;96349.63;2074805;28;20228;-60
2023/05/01 13:17:27;;;;;;;7.90;6.30;;;;;;;15.14;82.28;96342.78;2078497;28;20933;-60